createdAt,value
2022-10-01T00:01:16.010Z,4.72
2022-10-01T00:03:43.261Z,5.00
2022-10-01T00:06:17.582Z,4.93
2022-10-01T00:08:48.689Z,4.80
2022-10-01T00:11:24.287Z,5.10
2022-10-01T00:13:51.848Z,4.85
2022-10-01T00:16:20.980Z,5.10
2022-10-01T00:18:48.757Z,5.18
2022-10-01T00:21:18.371Z,4.50
2022-10-01T00:23:46.145Z,4.50
2022-10-01T00:26:15.373Z,3.50
2022-10-01T00:28:43.595Z,2.93
2022-10-01T00:31:10.974Z,3.00
2022-10-01T00:33:38.424Z,3.03
2022-10-01T00:36:06.446Z,3.00
2022-10-01T00:38:33.864Z,3.10
2022-10-01T00:41:01.028Z,3.00
2022-10-01T00:43:29.919Z,2.75
2022-10-01T00:46:02.300Z,2.38
2022-10-01T00:48:33.846Z,2.22
2022-10-01T00:51:00.867Z,3.00
2022-10-01T00:53:27.519Z,2.40
2022-10-01T00:55:56.858Z,2.75
2022-10-01T00:58:24.794Z,2.42
2022-10-01T01:00:53.212Z,2.50
2022-10-01T01:03:19.603Z,2.42
2022-10-01T01:05:47.698Z,2.43
2022-10-01T01:08:15.192Z,2.72
2022-10-01T01:10:52.864Z,2.55
2022-10-01T01:13:56.139Z,2.30
2022-10-01T01:16:34.348Z,2.50
2022-10-01T01:19:12.924Z,2.60
2022-10-01T01:21:44.173Z,2.65
2022-10-01T01:24:28.843Z,2.60
2022-10-01T01:27:00.675Z,2.40
2022-10-01T01:29:41.171Z,2.40
2022-10-01T01:32:15.031Z,2.90
2022-10-01T01:34:45.422Z,2.60
2022-10-01T01:37:15.391Z,3.05
2022-10-01T01:39:46.236Z,2.80
2022-10-01T01:42:22.935Z,2.85
2022-10-01T01:44:53.129Z,3.00
2022-10-01T01:47:23.491Z,3.50
2022-10-01T01:49:52.607Z,3.42
2022-10-01T01:52:19.113Z,3.35
2022-10-01T01:54:48.073Z,3.28
2022-10-01T01:57:17.472Z,3.30
2022-10-01T01:59:44.000Z,3.63
2022-10-01T02:02:35.439Z,3.67
2022-10-01T02:05:25.639Z,3.65
2022-10-01T02:07:52.770Z,3.70
2022-10-01T02:10:53.973Z,3.80
2022-10-01T02:13:38.181Z,3.50
2022-10-01T02:17:05.997Z,3.10
2022-10-01T02:20:01.975Z,3.45
2022-10-01T02:22:37.262Z,3.22
2022-10-01T02:25:06.564Z,2.90
2022-10-01T02:27:40.588Z,3.30
2022-10-01T02:30:10.449Z,3.22
2022-10-01T02:32:40.507Z,3.17
2022-10-01T02:35:10.981Z,3.38
2022-10-01T02:37:39.382Z,3.10
2022-10-01T02:40:08.940Z,2.85
2022-10-01T02:42:36.657Z,3.03
2022-10-01T02:45:04.868Z,2.78
2022-10-01T02:47:44.523Z,2.75
2022-10-01T02:50:12.781Z,2.87
2022-10-01T02:52:52.699Z,2.40
2022-10-01T02:55:28.727Z,3.30
2022-10-01T02:57:56.207Z,2.47
2022-10-01T03:00:22.963Z,2.95
2022-10-01T03:02:50.100Z,3.00
2022-10-01T03:05:17.915Z,2.83
2022-10-01T03:07:44.478Z,2.90
2022-10-01T03:10:12.111Z,2.83
2022-10-01T03:12:44.043Z,2.90
2022-10-01T03:15:11.752Z,2.77
2022-10-01T03:17:38.210Z,3.08
2022-10-01T03:20:05.654Z,3.17
2022-10-01T03:22:33.034Z,3.25
2022-10-01T03:24:59.810Z,3.10
2022-10-01T03:27:26.311Z,3.20
2022-10-01T03:29:52.774Z,3.38
2022-10-01T03:32:20.376Z,3.90
2022-10-01T03:34:46.875Z,3.45
2022-10-01T03:37:13.348Z,3.20
2022-10-01T03:39:39.838Z,3.53
2022-10-01T03:42:07.058Z,3.53
2022-10-01T03:44:33.938Z,4.07
2022-10-01T03:47:00.545Z,3.83
2022-10-01T03:49:27.810Z,4.18
2022-10-01T03:51:54.372Z,3.97
2022-10-01T03:54:21.588Z,4.10
2022-10-01T03:56:48.832Z,4.45
2022-10-01T03:59:15.199Z,3.70
2022-10-01T04:01:41.658Z,3.88
2022-10-01T04:04:08.124Z,4.30
2022-10-01T04:06:34.587Z,3.50
2022-10-01T04:09:01.215Z,4.63
2022-10-01T04:11:27.899Z,4.50
2022-10-01T04:13:54.293Z,4.38
2022-10-01T04:16:20.748Z,4.10
2022-10-01T04:18:47.372Z,4.03
2022-10-01T04:21:15.451Z,4.07
2022-10-01T04:23:42.277Z,4.70
2022-10-01T04:26:09.240Z,4.80
2022-10-01T04:28:35.645Z,4.73
2022-10-01T04:31:20.688Z,4.65
2022-10-01T04:33:47.413Z,4.78
2022-10-01T04:36:13.756Z,3.80
2022-10-01T04:38:40.145Z,3.47
2022-10-01T04:41:07.153Z,4.73
2022-10-01T04:43:33.509Z,4.13
2022-10-01T04:45:59.876Z,4.72
2022-10-01T04:48:26.349Z,3.45
2022-10-01T04:50:52.844Z,4.50
2022-10-01T04:53:19.253Z,4.17
2022-10-01T04:55:46.608Z,5.25
2022-10-01T04:58:13.065Z,5.90
2022-10-01T05:00:39.876Z,6.22
2022-10-01T05:03:06.368Z,5.85
2022-10-01T05:05:34.910Z,6.43
2022-10-01T05:08:01.984Z,5.72
2022-10-01T05:10:29.245Z,6.15
2022-10-01T05:12:55.624Z,6.07
2022-10-01T05:15:21.994Z,5.70
2022-10-01T05:17:48.421Z,4.73
2022-10-01T05:20:20.773Z,4.95
2022-10-01T05:22:48.788Z,4.20
2022-10-01T05:25:16.409Z,4.20
2022-10-01T05:27:42.882Z,3.70
2022-10-01T05:30:10.731Z,3.40
2022-10-01T05:32:37.764Z,3.50
2022-10-01T05:35:06.994Z,3.50
2022-10-01T05:37:33.998Z,3.45
2022-10-01T05:40:00.907Z,3.30
2022-10-01T05:42:27.310Z,3.60
2022-10-01T05:44:53.702Z,3.53
2022-10-01T05:47:20.890Z,3.40
2022-10-01T05:49:47.291Z,3.22
2022-10-01T05:52:15.527Z,3.38
2022-10-01T05:54:41.978Z,3.13
2022-10-01T05:57:09.284Z,2.97
2022-10-01T05:59:35.962Z,3.47
2022-10-01T06:02:04.230Z,2.65
2022-10-01T06:04:31.376Z,2.70
2022-10-01T06:06:58.220Z,2.60
2022-10-01T06:09:24.704Z,2.63
2022-10-01T06:11:51.215Z,2.85
2022-10-01T06:14:17.820Z,2.72
2022-10-01T06:16:44.650Z,2.70
2022-10-01T06:19:11.083Z,2.37
2022-10-01T06:21:37.837Z,2.92
2022-10-01T06:24:05.154Z,3.15
2022-10-01T06:26:31.645Z,2.67
2022-10-01T06:28:58.019Z,2.90
2022-10-01T06:31:25.000Z,3.00
2022-10-01T06:33:51.463Z,2.97
2022-10-01T06:36:17.974Z,2.95
2022-10-01T06:38:44.984Z,3.20
2022-10-01T06:41:12.029Z,2.50
2022-10-01T06:43:38.900Z,2.30
2022-10-01T06:46:05.557Z,3.15
2022-10-01T06:48:32.609Z,2.60
2022-10-01T06:50:59.526Z,2.22
2022-10-01T06:53:28.168Z,2.42
2022-10-01T06:55:54.956Z,2.30
2022-10-01T06:58:26.200Z,2.00
2022-10-01T07:00:58.927Z,2.10
2022-10-01T07:03:25.736Z,2.00
2022-10-01T07:05:52.239Z,2.20
2022-10-01T07:08:19.052Z,1.77
2022-10-01T07:10:45.690Z,1.63
2022-10-01T07:13:17.970Z,2.00
2022-10-01T07:15:45.258Z,1.75
2022-10-01T07:18:12.733Z,3.00
2022-10-01T07:20:40.373Z,2.47
2022-10-01T07:23:15.214Z,3.05
2022-10-01T07:25:42.488Z,2.13
2022-10-01T07:28:17.902Z,1.88
2022-10-01T07:30:47.845Z,1.80
2022-10-01T07:33:18.383Z,1.57
2022-10-01T07:35:47.691Z,1.65
2022-10-01T07:38:14.048Z,1.70
2022-10-01T07:40:40.575Z,1.70
2022-10-01T07:43:07.025Z,2.40
2022-10-01T07:45:33.431Z,2.27
2022-10-01T07:48:02.208Z,2.05
2022-10-01T07:50:32.972Z,2.17
2022-10-01T07:52:59.875Z,2.85
2022-10-01T07:55:30.494Z,1.83
2022-10-01T07:57:59.419Z,1.50
2022-10-01T08:00:27.122Z,1.83
2022-10-01T08:02:56.136Z,2.83
2022-10-01T08:05:28.989Z,2.20
2022-10-01T08:08:00.482Z,2.05
2022-10-01T08:10:27.330Z,1.83
2022-10-01T08:12:59.645Z,2.00
2022-10-01T08:15:26.074Z,2.45
2022-10-01T08:17:52.460Z,2.00
2022-10-01T08:20:19.451Z,1.73
2022-10-01T08:22:45.894Z,1.90
2022-10-01T08:25:14.873Z,1.88
2022-10-01T08:27:41.390Z,2.10
2022-10-01T08:30:08.338Z,2.00
2022-10-01T08:32:34.719Z,2.60
2022-10-01T08:35:02.428Z,2.10
2022-10-01T08:37:29.917Z,2.13
2022-10-01T08:39:56.859Z,2.00
2022-10-01T08:42:34.709Z,2.30
2022-10-01T08:45:06.347Z,2.50
2022-10-01T08:47:40.468Z,2.30
2022-10-01T08:50:27.329Z,2.22
2022-10-01T08:53:02.581Z,2.47
2022-10-01T08:55:36.476Z,2.80
2022-10-01T08:58:10.071Z,2.10
2022-10-01T09:00:42.792Z,2.37
2022-10-01T09:03:14.801Z,3.33
2022-10-01T09:05:52.510Z,3.30
2022-10-01T09:09:01.632Z,2.72
2022-10-01T09:11:34.357Z,2.20
2022-10-01T09:14:19.335Z,2.20
2022-10-01T09:16:46.163Z,1.48
2022-10-01T09:19:31.667Z,1.63
2022-10-01T09:22:02.171Z,1.70
2022-10-01T09:24:43.699Z,1.10
2022-10-01T09:27:18.561Z,1.50
2022-10-01T09:29:53.130Z,1.35
2022-10-01T09:32:24.508Z,1.58
2022-10-01T09:34:52.159Z,1.90
2022-10-01T09:37:41.955Z,1.60
2022-10-01T09:40:33.655Z,1.60
2022-10-01T09:43:00.813Z,1.63
2022-10-01T09:45:27.342Z,2.00
2022-10-01T09:47:58.464Z,1.52
2022-10-01T09:50:34.681Z,1.38
2022-10-01T09:53:02.208Z,1.70
2022-10-01T09:55:40.938Z,1.80
2022-10-01T09:58:11.773Z,1.40
2022-10-01T10:00:40.118Z,1.13
2022-10-01T10:03:06.995Z,1.50
2022-10-01T10:05:43.379Z,1.30
2022-10-01T10:08:15.879Z,1.40
2022-10-01T10:10:58.297Z,1.80
2022-10-01T10:13:39.458Z,1.42
2022-10-01T10:16:12.055Z,1.52
2022-10-01T10:18:40.081Z,1.60
2022-10-01T10:21:15.166Z,1.42
2022-10-01T10:23:59.891Z,1.70
2022-10-01T10:26:39.361Z,1.40
2022-10-01T10:29:08.492Z,1.20
2022-10-01T10:31:41.931Z,1.43
2022-10-01T10:34:17.621Z,1.35
2022-10-01T10:36:46.150Z,1.20
2022-10-01T10:39:24.486Z,1.25
2022-10-01T10:41:52.878Z,1.33
2022-10-01T10:44:22.280Z,1.30
2022-10-01T10:46:51.351Z,1.50
2022-10-01T10:49:21.650Z,1.40
2022-10-01T10:51:55.946Z,1.50
2022-10-01T10:54:25.367Z,1.38
2022-10-01T10:57:02.244Z,1.83
2022-10-01T10:59:31.720Z,1.70
2022-10-01T11:02:00.592Z,2.00
2022-10-01T11:04:32.771Z,1.40
2022-10-01T11:07:01.633Z,1.60
2022-10-01T11:09:44.179Z,1.60
2022-10-01T11:12:23.387Z,1.70
2022-10-01T11:15:02.234Z,1.98
2022-10-01T11:17:43.880Z,2.33
2022-10-01T11:20:37.799Z,1.67
2022-10-01T11:23:27.991Z,2.30
2022-10-01T11:26:24.961Z,1.40
2022-10-01T11:29:07.848Z,1.55
2022-10-01T11:31:52.704Z,1.50
2022-10-01T11:34:50.458Z,1.30
2022-10-01T11:37:48.936Z,1.37
2022-10-01T11:40:27.270Z,1.20
2022-10-01T11:43:00.098Z,1.45
2022-10-01T11:45:32.009Z,2.25
2022-10-01T11:48:09.025Z,1.48
2022-10-01T11:50:40.659Z,1.20
2022-10-01T11:53:30.646Z,1.52
2022-10-01T11:56:38.069Z,1.42
2022-10-01T11:59:23.735Z,1.17
2022-10-01T12:02:15.241Z,1.13
2022-10-01T12:04:49.599Z,1.53
2022-10-01T12:07:38.254Z,1.30
2022-10-01T12:10:39.206Z,1.10
2022-10-01T12:13:19.764Z,1.30
2022-10-01T12:15:53.664Z,1.50
2022-10-01T12:18:49.127Z,1.40
2022-10-01T12:21:43.560Z,1.40
2022-10-01T12:24:16.240Z,1.25
2022-10-01T12:27:14.605Z,1.20
2022-10-01T12:29:43.969Z,1.25
2022-10-01T12:32:30.115Z,1.40
2022-10-01T12:35:17.891Z,1.40
2022-10-01T12:38:06.286Z,0.90
2022-10-01T12:40:47.887Z,1.20
2022-10-01T12:43:47.237Z,1.10
2022-10-01T12:46:58.632Z,1.30
2022-10-01T12:49:35.186Z,1.88
2022-10-01T12:52:17.018Z,1.40
2022-10-01T12:55:04.834Z,1.17
2022-10-01T12:58:06.276Z,1.20
2022-10-01T13:01:04.276Z,1.13
2022-10-01T13:04:03.386Z,1.23
2022-10-01T13:06:45.705Z,1.10
2022-10-01T13:09:15.107Z,1.10
2022-10-01T13:11:51.012Z,1.20
2022-10-01T13:14:19.151Z,1.07
2022-10-01T13:17:02.582Z,1.20
2022-10-01T13:19:44.220Z,1.40
2022-10-01T13:22:14.720Z,1.50
2022-10-01T13:24:50.044Z,1.50
2022-10-01T13:27:39.103Z,1.20
2022-10-01T13:30:17.766Z,1.60
2022-10-01T13:33:05.182Z,1.30
2022-10-01T13:35:39.593Z,1.15
2022-10-01T13:38:17.389Z,1.10
2022-10-01T13:40:44.238Z,1.10
2022-10-01T13:43:24.189Z,1.30
2022-10-01T13:45:55.262Z,1.20
2022-10-01T13:48:32.364Z,1.45
2022-10-01T13:51:17.392Z,1.08
2022-10-01T13:53:44.871Z,1.20
2022-10-01T13:56:14.487Z,1.02
2022-10-01T13:58:43.387Z,1.20
2022-10-01T14:01:19.938Z,1.23
2022-10-01T14:04:19.095Z,1.20
2022-10-01T14:06:59.858Z,1.10
2022-10-01T14:09:40.970Z,1.40
2022-10-01T14:12:40.680Z,1.40
2022-10-01T14:15:38.558Z,1.40
2022-10-01T14:18:34.364Z,1.60
2022-10-01T14:21:16.094Z,1.80
2022-10-01T14:23:57.831Z,2.70
2022-10-01T14:26:33.937Z,2.75
2022-10-01T14:29:16.771Z,2.42
2022-10-01T14:31:56.761Z,1.60
2022-10-01T14:34:41.294Z,1.80
2022-10-01T14:37:16.216Z,1.65
2022-10-01T14:39:43.716Z,1.40
2022-10-01T14:42:17.107Z,1.40
2022-10-01T14:44:46.443Z,1.30
2022-10-01T14:47:24.002Z,1.43
2022-10-01T14:49:51.806Z,2.00
2022-10-01T14:52:22.307Z,1.95
2022-10-01T14:54:59.045Z,1.65
2022-10-01T14:57:30.130Z,1.83
2022-10-01T14:59:59.476Z,1.60
2022-10-01T15:02:27.640Z,1.52
2022-10-01T15:04:56.899Z,2.00
2022-10-01T15:07:25.617Z,2.25
2022-10-01T15:09:52.171Z,2.08
2022-10-01T15:12:22.000Z,2.33
2022-10-01T15:14:53.517Z,3.13
2022-10-01T15:17:24.792Z,2.60
2022-10-01T15:19:54.839Z,2.83
2022-10-01T15:22:26.214Z,2.80
2022-10-01T15:24:57.772Z,2.30
2022-10-01T15:27:24.874Z,3.28
2022-10-01T15:29:56.478Z,3.00
2022-10-01T15:32:24.146Z,2.00
2022-10-01T15:35:02.049Z,2.35
2022-10-01T15:37:34.795Z,2.57
2022-10-01T15:40:02.526Z,3.03
2022-10-01T15:42:34.140Z,3.80
2022-10-01T15:45:09.409Z,3.30
2022-10-01T15:47:37.872Z,3.22
2022-10-01T15:50:10.277Z,2.90
2022-10-01T15:53:06.830Z,7.28
2022-10-01T15:55:39.025Z,3.65
2022-10-01T15:58:11.545Z,5.93
2022-10-01T16:00:47.622Z,8.05
2022-10-01T16:03:23.912Z,4.37
2022-10-01T16:05:54.881Z,3.50
2022-10-01T16:08:24.577Z,3.60
2022-10-01T16:11:17.756Z,3.60
2022-10-01T16:13:50.277Z,3.20
2022-10-01T16:16:29.091Z,2.60
2022-10-01T16:19:18.891Z,2.67
2022-10-01T16:22:17.323Z,2.50
2022-10-01T16:24:55.795Z,2.28
2022-10-01T16:27:25.730Z,2.83
2022-10-01T16:30:05.370Z,2.77
2022-10-01T16:32:32.702Z,3.53
2022-10-01T16:35:19.560Z,3.55
2022-10-01T16:37:50.237Z,2.40
2022-10-01T16:40:18.558Z,5.75
2022-10-01T16:42:46.153Z,3.23
2022-10-01T16:45:18.461Z,3.17
2022-10-01T16:47:46.115Z,2.80
2022-10-01T16:50:15.422Z,3.17
2022-10-01T16:52:42.219Z,3.80
2022-10-01T16:55:17.203Z,3.47
2022-10-01T16:57:44.011Z,2.47
2022-10-01T17:00:16.931Z,2.50
2022-10-01T17:02:43.804Z,2.70
2022-10-01T17:05:31.798Z,3.60
2022-10-01T17:08:01.289Z,3.60
2022-10-01T17:10:31.640Z,4.15
2022-10-01T17:12:59.551Z,5.15
2022-10-01T17:15:27.336Z,5.68
2022-10-01T17:17:55.125Z,5.68
2022-10-01T17:20:22.489Z,3.77
2022-10-01T17:22:49.617Z,3.95
2022-10-01T17:25:19.775Z,4.72
2022-10-01T17:27:46.784Z,5.60
2022-10-01T17:30:13.606Z,5.30
2022-10-01T17:32:42.746Z,6.47
2022-10-01T17:35:14.115Z,5.25
2022-10-01T17:37:41.720Z,4.57
2022-10-01T17:40:09.327Z,4.60
2022-10-01T17:42:36.079Z,3.58
2022-10-01T17:45:06.191Z,3.50
2022-10-01T17:47:33.609Z,4.10
2022-10-01T17:50:00.784Z,4.20
2022-10-01T17:52:27.408Z,4.50
2022-10-01T17:54:53.856Z,5.20
2022-10-01T17:57:20.957Z,8.30
2022-10-01T17:59:47.726Z,12.35
2022-10-01T18:02:39.907Z,10.65
2022-10-01T18:05:03.915Z,17.98
2022-10-01T18:07:30.597Z,10.95
2022-10-01T18:09:57.181Z,11.70
2022-10-01T18:12:23.579Z,8.93
2022-10-01T18:14:50.002Z,9.40
2022-10-01T18:17:16.532Z,8.38
2022-10-01T18:19:58.390Z,5.70
2022-10-01T18:22:24.828Z,3.90
2022-10-01T18:24:51.688Z,3.15
2022-10-01T18:27:18.299Z,3.38
2022-10-01T18:29:44.726Z,3.00
2022-10-01T18:32:22.170Z,2.85
2022-10-01T18:34:59.581Z,2.90
2022-10-01T18:37:35.974Z,2.47
2022-10-01T18:40:16.133Z,2.75
2022-10-01T18:42:51.473Z,29.95
2022-10-01T18:45:29.565Z,6.20
2022-10-01T18:48:06.882Z,3.50
2022-10-01T18:50:48.393Z,3.30
2022-10-01T18:53:29.808Z,3.45
2022-10-01T18:56:26.274Z,3.80
2022-10-01T18:59:10.602Z,4.40
2022-10-01T19:02:01.865Z,4.70
2022-10-01T19:04:45.539Z,3.90
2022-10-01T19:07:22.330Z,4.45
2022-10-01T19:10:06.392Z,3.90
2022-10-01T19:13:03.945Z,3.70
2022-10-01T19:15:49.827Z,3.77
2022-10-01T19:18:22.132Z,3.60
2022-10-01T19:21:25.946Z,3.60
2022-10-01T19:24:07.608Z,3.58
2022-10-01T19:26:44.362Z,3.05
2022-10-01T19:29:10.663Z,2.90
2022-10-01T19:32:07.418Z,9.07
2022-10-01T19:35:12.777Z,7.72
2022-10-01T19:37:50.305Z,8.32
2022-10-01T19:40:43.066Z,4.43
2022-10-01T19:43:24.812Z,4.40
2022-10-01T19:46:03.186Z,4.80
2022-10-01T19:48:29.595Z,4.50
2022-10-01T19:51:07.196Z,5.07
2022-10-01T19:53:35.148Z,6.50
2022-10-01T19:56:02.551Z,7.80
2022-10-01T19:58:30.579Z,5.50
2022-10-01T20:01:00.079Z,5.47
2022-10-01T20:03:29.717Z,4.95
2022-10-01T20:06:06.976Z,4.40
2022-10-01T20:08:41.764Z,4.30
2022-10-01T20:11:29.102Z,4.60
2022-10-01T20:14:10.726Z,4.70
2022-10-01T20:16:45.206Z,4.03
2022-10-01T20:19:35.260Z,3.58
2022-10-01T20:22:20.827Z,5.80
2022-10-01T20:25:03.091Z,4.38
2022-10-01T20:27:59.038Z,4.53
2022-10-01T20:30:30.302Z,4.05
2022-10-01T20:33:17.070Z,4.28
2022-10-01T20:36:14.421Z,4.10
2022-10-01T20:38:49.721Z,3.60
2022-10-01T20:41:19.868Z,3.85
2022-10-01T20:43:57.485Z,3.83
2022-10-01T20:46:38.848Z,3.58
2022-10-01T20:49:18.017Z,4.10
2022-10-01T20:51:55.421Z,3.60
2022-10-01T20:54:31.610Z,3.78
2022-10-01T20:57:20.048Z,3.80
2022-10-01T20:59:52.105Z,4.15
2022-10-01T21:02:38.184Z,3.70
2022-10-01T21:05:13.896Z,3.30
2022-10-01T21:07:48.726Z,3.80
2022-10-01T21:10:40.236Z,3.50
2022-10-01T21:13:14.884Z,3.78
2022-10-01T21:15:59.568Z,4.67
2022-10-01T21:18:45.590Z,6.57
2022-10-01T21:21:32.567Z,4.43
2022-10-01T21:24:16.672Z,4.25
2022-10-01T21:27:09.945Z,2.97
2022-10-01T21:30:05.315Z,3.20
2022-10-01T21:33:06.014Z,3.70
2022-10-01T21:35:56.793Z,3.28
2022-10-01T21:38:32.150Z,2.80
2022-10-01T21:41:12.997Z,3.55
2022-10-01T21:43:58.101Z,3.10
2022-10-01T21:46:36.723Z,2.90
2022-10-01T21:49:32.013Z,3.80
2022-10-01T21:52:18.876Z,4.90
2022-10-01T21:55:03.535Z,4.20
2022-10-01T21:57:54.847Z,3.80
2022-10-01T22:00:25.812Z,3.30
2022-10-01T22:03:07.545Z,5.60
2022-10-01T22:05:39.498Z,5.65
2022-10-01T22:08:30.003Z,5.22
2022-10-01T22:11:12.307Z,4.47
2022-10-01T22:13:44.771Z,14.18
2022-10-01T22:16:14.348Z,3.85
2022-10-01T22:18:49.004Z,4.40
2022-10-01T22:21:22.983Z,4.50
2022-10-01T22:23:58.916Z,4.23
2022-10-01T22:26:29.716Z,3.20
2022-10-01T22:28:56.893Z,3.35
2022-10-01T22:31:28.973Z,2.92
2022-10-01T22:34:00.957Z,3.33
2022-10-01T22:36:46.231Z,2.33
2022-10-01T22:39:24.566Z,2.80
2022-10-01T22:42:10.864Z,5.00
2022-10-01T22:44:37.321Z,4.72
2022-10-01T22:47:18.099Z,3.75
2022-10-01T22:50:06.759Z,3.37
2022-10-01T22:52:44.604Z,3.15
2022-10-01T22:55:24.462Z,3.70
2022-10-01T22:58:02.972Z,3.05
2022-10-01T23:00:36.362Z,3.50
2022-10-01T23:03:28.332Z,3.33
2022-10-01T23:06:14.582Z,3.08
2022-10-01T23:08:57.088Z,3.33
2022-10-01T23:11:44.389Z,2.92
2022-10-01T23:14:28.843Z,2.65
2022-10-01T23:17:11.464Z,3.00
2022-10-01T23:19:50.029Z,3.63
2022-10-01T23:22:39.653Z,2.55
2022-10-01T23:25:06.101Z,2.63
2022-10-01T23:28:07.688Z,2.90
2022-10-01T23:30:57.339Z,3.00
2022-10-01T23:33:41.377Z,2.83
2022-10-01T23:36:20.582Z,3.90
2022-10-01T23:39:16.441Z,3.40
2022-10-01T23:41:53.637Z,3.97
2022-10-01T23:44:49.887Z,3.57
2022-10-01T23:47:25.616Z,3.70
2022-10-01T23:49:55.091Z,3.95
2022-10-01T23:52:52.294Z,3.50
2022-10-01T23:56:00.862Z,3.83
2022-10-01T23:58:30.002Z,3.50
